Terminal Aerodrome Forecast
Issued by NWS

Home | Current Version | Previous Version | Text Only | Print | Product List | Glossary On
Versions: 1 2 3 4 5 6 7 8 9 10 11 12 13 14 15 16 17 18 19 20 21 22 23
903
FTUS41 KPBZ 071730
TAFAGC
TAF
KAGC 071730Z 0718/0818 25010KT P6SM SCT100
     FM080100 24005KT P6SM BKN110
     FM081600 25012G22KT P6SM BKN060=

USA.gov is the U.S. government's official web portal to all federal, state and local government web resources and services.